首页
METAR-TAF:

METAR-TAF

机场 :

NASA Shuttle Landing Facility

肯尼迪航天中心, 佛罗里达州, 美国

纬度: 28-37N, 经度: 080-43W, 海拔: 3米

当前天气观测

该预报发布于19分钟前的09:27 UTC
风速10节,风向东北
温度 23°C
湿度 94%
气压 1017 hPa
能見度: 3.2公里
少量云层高于200英尺
少量云层高于1000英尺
阴天层高于1800英尺
大雨, 轻雾

METAR: KTTS 010927Z AUTO 04010KT 2SM +RA BR FEW002 FEW010 OVC018 23/22 A3004 RMK AO2 VIS 1 1/2V2 DZB0857E0859RAB0859 CIG 014 RWY15 SLP177 $

时间: 05:46 (09:46 UTC)


TAF: 丢失

超过4000个机场的气象观测和天气预报(METAR&TAF报告)。

可查询的气象台以黄色和红色小点在地图上表示。

将鼠标移到小点上方,可查看气象台名称。

然后点击查看天气观测和预报。

如需切换地图:点击带黑十字的绿色按钮放大地图;点击带横线的绿色按钮缩小地图;或者点击绿色箭头查看邻近地区的地图。


METAR-TAF: